createdAt,value
2018-02-14T00:01:28.700Z,15.40
2018-02-14T00:03:54.692Z,20.58
2018-02-14T00:06:20.651Z,15.07
2018-02-14T00:08:46.730Z,15.20
2018-02-14T00:11:12.684Z,14.15
2018-02-14T00:13:39.355Z,13.98
2018-02-14T00:16:05.347Z,13.30
2018-02-14T00:18:32.107Z,16.87
2018-02-14T00:20:58.095Z,19.52
2018-02-14T00:23:24.819Z,15.48
2018-02-14T00:25:50.930Z,12.63
2018-02-14T00:28:16.871Z,17.25
2018-02-14T00:30:42.851Z,15.93
2018-02-14T00:33:08.784Z,15.40
2018-02-14T00:35:34.751Z,14.32
2018-02-14T00:38:01.587Z,15.25
2018-02-14T00:40:27.683Z,16.25
2018-02-14T00:42:53.663Z,17.42
2018-02-14T00:45:19.624Z,15.63
2018-02-14T00:47:45.601Z,15.20
2018-02-14T00:50:12.277Z,14.35
2018-02-14T00:52:38.260Z,13.45
2018-02-14T00:55:04.985Z,16.23
2018-02-14T00:57:31.833Z,12.90
2018-02-14T00:59:58.544Z,15.05
2018-02-14T01:02:24.501Z,14.00
2018-02-14T01:04:51.220Z,15.18
2018-02-14T01:07:17.180Z,15.85
2018-02-14T01:09:43.173Z,21.02
2018-02-14T01:12:09.880Z,13.20
2018-02-14T01:14:35.820Z,13.85
2018-02-14T01:17:01.914Z,13.52
2018-02-14T01:19:27.847Z,17.90
2018-02-14T01:21:53.819Z,14.45
2018-02-14T01:24:19.757Z,17.95
2018-02-14T01:26:45.720Z,14.45
2018-02-14T01:29:11.658Z,16.90
2018-02-14T01:31:37.593Z,13.50
2018-02-14T01:34:04.415Z,14.48
2018-02-14T01:36:30.357Z,15.13
2018-02-14T01:38:57.186Z,16.42
2018-02-14T01:41:23.113Z,15.40
2018-02-14T01:43:49.836Z,15.73
2018-02-14T01:46:15.783Z,16.20
2018-02-14T01:48:42.601Z,13.73
2018-02-14T01:51:08.544Z,27.55
2018-02-14T01:53:35.274Z,15.00
2018-02-14T01:56:01.212Z,16.35
2018-02-14T01:58:27.883Z,22.77
2018-02-14T02:00:53.847Z,15.63
2018-02-14T02:03:19.778Z,17.23
2018-02-14T02:05:45.876Z,14.37
2018-02-14T02:08:11.822Z,14.02
2018-02-14T02:10:37.759Z,17.23
2018-02-14T02:13:04.467Z,20.00
2018-02-14T02:15:30.395Z,19.10
2018-02-14T02:17:56.371Z,24.98
2018-02-14T02:20:22.313Z,19.55
2018-02-14T02:22:48.259Z,16.98
2018-02-14T02:25:14.360Z,17.08
2018-02-14T02:27:40.327Z,18.33
2018-02-14T02:30:07.037Z,17.80
2018-02-14T02:32:32.963Z,19.35
2018-02-14T02:34:58.959Z,16.90
2018-02-14T02:37:25.048Z,18.33
2018-02-14T02:39:50.984Z,16.87
2018-02-14T02:42:17.044Z,19.48
2018-02-14T02:44:43.015Z,18.87
2018-02-14T02:47:09.682Z,15.95
2018-02-14T02:49:35.625Z,23.67
2018-02-14T02:52:01.585Z,18.70
2018-02-14T02:54:28.271Z,22.83
2018-02-14T02:56:54.344Z,19.62
2018-02-14T02:59:21.028Z,20.90
2018-02-14T03:01:46.995Z,17.90
2018-02-14T03:04:13.703Z,18.15
2018-02-14T03:06:39.651Z,18.60
2018-02-14T03:09:05.614Z,21.58
2018-02-14T03:11:31.552Z,17.40
2018-02-14T03:13:57.636Z,15.88
2018-02-14T03:16:23.597Z,17.65
2018-02-14T03:18:49.563Z,19.35
2018-02-14T03:21:15.490Z,18.35
2018-02-14T03:23:42.180Z,22.33
2018-02-14T03:26:08.155Z,20.00
2018-02-14T03:28:34.093Z,20.37
2018-02-14T03:31:00.313Z,17.70
2018-02-14T03:33:27.011Z,17.75
2018-02-14T03:35:52.979Z,21.12
2018-02-14T03:38:19.663Z,21.55
2018-02-14T03:40:45.636Z,20.50
2018-02-14T03:43:12.316Z,17.95
2018-02-14T03:45:38.260Z,20.33
2018-02-14T03:48:04.331Z,20.00
2018-02-14T03:50:30.995Z,20.33
2018-02-14T03:52:57.685Z,20.52
2018-02-14T03:55:23.600Z,24.02
2018-02-14T03:57:49.550Z,21.93
2018-02-14T04:00:16.219Z,20.75
2018-02-14T04:02:42.325Z,20.88
2018-02-14T04:05:08.263Z,20.10
2018-02-14T04:07:34.189Z,24.42
2018-02-14T04:10:00.187Z,19.83
2018-02-14T04:12:26.116Z,18.73
2018-02-14T04:14:52.200Z,20.92
2018-02-14T04:17:19.492Z,20.45
2018-02-14T04:19:45.583Z,18.30
2018-02-14T04:22:11.537Z,20.15
2018-02-14T04:24:37.484Z,19.60
2018-02-14T04:27:03.457Z,18.80
2018-02-14T04:29:30.255Z,17.12
2018-02-14T04:31:56.225Z,18.27
2018-02-14T04:34:22.914Z,16.35
2018-02-14T04:36:48.836Z,22.30
2018-02-14T04:39:14.905Z,23.20
2018-02-14T04:41:45.168Z,18.83
2018-02-14T04:44:11.103Z,21.05
2018-02-14T04:46:37.071Z,18.55
2018-02-14T04:49:03.788Z,18.52
2018-02-14T04:51:29.735Z,19.83
2018-02-14T04:53:56.560Z,19.42
2018-02-14T04:56:22.503Z,21.40
2018-02-14T04:58:48.580Z,14.98
2018-02-14T05:01:14.511Z,18.08
2018-02-14T05:03:40.476Z,18.90
2018-02-14T05:06:06.424Z,24.20
2018-02-14T05:08:32.395Z,17.62
2018-02-14T05:10:58.329Z,20.75
2018-02-14T05:13:25.016Z,15.98
2018-02-14T05:15:51.123Z,24.80
2018-02-14T05:18:17.055Z,18.05
2018-02-14T05:20:43.041Z,18.27
2018-02-14T05:23:09.725Z,21.45
2018-02-14T05:25:35.698Z,19.30
2018-02-14T05:28:02.427Z,19.73
2018-02-14T05:30:28.500Z,25.80
2018-02-14T05:32:54.620Z,20.27
2018-02-14T05:35:20.584Z,20.20
2018-02-14T05:37:46.554Z,20.10
2018-02-14T05:40:12.496Z,21.40
2018-02-14T05:42:38.471Z,21.77
2018-02-14T05:45:04.407Z,22.25
2018-02-14T05:47:30.499Z,21.95
2018-02-14T05:49:56.485Z,17.67
2018-02-14T05:52:22.414Z,19.95
2018-02-14T05:54:48.383Z,21.30
2018-02-14T05:57:15.086Z,19.92
2018-02-14T05:59:41.088Z,25.50
2018-02-14T06:02:07.061Z,18.90
2018-02-14T06:04:32.998Z,22.40
2018-02-14T06:06:59.823Z,27.45
2018-02-14T06:09:25.778Z,23.90
2018-02-14T06:11:51.744Z,25.62
2018-02-14T06:14:17.667Z,21.83
2018-02-14T06:16:43.646Z,22.52
2018-02-14T06:19:09.591Z,22.70
2018-02-14T06:21:35.525Z,19.17
2018-02-14T06:24:01.614Z,20.65
2018-02-14T06:26:27.531Z,19.90
2018-02-14T06:28:53.507Z,25.55
2018-02-14T06:31:19.599Z,28.45
2018-02-14T06:33:45.703Z,24.00
2018-02-14T06:36:11.631Z,17.45
2018-02-14T06:38:37.621Z,26.90
2018-02-14T06:41:04.491Z,27.42
2018-02-14T06:43:30.460Z,32.38
2018-02-14T06:45:56.428Z,31.17
2018-02-14T06:48:22.372Z,31.83
2018-02-14T06:50:48.316Z,30.58
2018-02-14T06:53:14.411Z,26.75
2018-02-14T06:55:40.360Z,29.37
2018-02-14T06:58:06.321Z,28.25
2018-02-14T07:00:33.020Z,28.35
2018-02-14T07:02:58.984Z,26.60
2018-02-14T07:05:25.684Z,24.65
2018-02-14T07:07:51.775Z,33.35
2018-02-14T07:10:17.742Z,31.02
2018-02-14T07:12:43.766Z,34.83
2018-02-14T07:15:09.712Z,32.15
2018-02-14T07:17:35.747Z,31.60
2018-02-14T07:20:01.735Z,35.22
2018-02-14T07:22:27.671Z,30.02
2018-02-14T07:24:53.746Z,38.45
2018-02-14T07:27:19.688Z,32.55
2018-02-14T07:29:45.846Z,35.92
2018-02-14T07:32:12.552Z,30.05
2018-02-14T07:34:38.515Z,31.08
2018-02-14T07:37:05.251Z,35.28
2018-02-14T07:39:31.950Z,32.47
2018-02-14T07:41:57.939Z,34.88
2018-02-14T07:44:23.875Z,37.63
2018-02-14T07:46:49.988Z,40.03
2018-02-14T07:49:15.946Z,36.58
2018-02-14T07:51:41.951Z,42.38
2018-02-14T07:54:07.935Z,31.95
2018-02-14T07:56:34.663Z,39.63
2018-02-14T07:59:00.667Z,40.78
2018-02-14T08:01:26.729Z,36.50
2018-02-14T08:03:52.687Z,38.05
2018-02-14T08:06:18.808Z,39.72
2018-02-14T08:08:44.816Z,39.15
2018-02-14T08:11:10.803Z,34.72
2018-02-14T08:13:36.759Z,39.20
2018-02-14T08:16:02.864Z,44.53
2018-02-14T08:18:28.991Z,39.72
2018-02-14T08:20:55.197Z,38.03
2018-02-14T08:23:21.586Z,36.88
2018-02-14T08:25:47.618Z,39.20
2018-02-14T08:28:14.968Z,38.03
2018-02-14T08:30:41.113Z,37.08
2018-02-14T08:33:07.247Z,32.90
2018-02-14T08:35:33.232Z,37.92
2018-02-14T08:37:59.243Z,38.15
2018-02-14T08:40:25.258Z,39.80
2018-02-14T08:42:52.918Z,38.45
2018-02-14T08:45:19.492Z,40.65
2018-02-14T08:47:45.554Z,37.40
2018-02-14T08:50:12.645Z,39.50
2018-02-14T08:52:40.193Z,48.53
2018-02-14T08:55:06.459Z,33.58
2018-02-14T08:57:32.997Z,37.20
2018-02-14T08:59:59.848Z,45.50
2018-02-14T09:02:26.090Z,35.20
2018-02-14T09:04:54.424Z,38.22
2018-02-14T09:07:20.830Z,33.60
2018-02-14T09:09:47.980Z,40.00
2018-02-14T09:12:14.062Z,32.47
2018-02-14T09:14:40.703Z,36.42
2018-02-14T09:17:06.725Z,38.60
2018-02-14T09:19:33.517Z,34.08
2018-02-14T09:22:00.077Z,34.53
2018-02-14T09:24:26.421Z,33.05
2018-02-14T09:26:53.223Z,32.67
2018-02-14T09:29:20.678Z,33.75
2018-02-14T09:31:47.163Z,39.83
2018-02-14T09:34:14.519Z,34.00
2018-02-14T09:36:40.679Z,30.67
2018-02-14T09:39:08.682Z,29.20
2018-02-14T09:41:36.442Z,35.17
2018-02-14T09:44:04.714Z,32.42
2018-02-14T09:46:31.860Z,27.35
2018-02-14T09:48:59.956Z,29.37
2018-02-14T09:51:26.039Z,35.13
2018-02-14T09:53:54.641Z,32.78
2018-02-14T09:56:23.564Z,26.55
2018-02-14T09:58:51.752Z,34.13
2018-02-14T10:01:18.927Z,38.03
2018-02-14T10:03:47.458Z,29.25
2018-02-14T10:06:16.188Z,28.35
2018-02-14T10:08:44.852Z,29.87
2018-02-14T10:11:13.890Z,32.28
2018-02-14T10:13:41.275Z,32.53
2018-02-14T10:16:10.381Z,29.35
2018-02-14T10:18:38.845Z,26.67
2018-02-14T10:21:08.544Z,30.95
2018-02-14T10:23:36.173Z,26.98
2018-02-14T10:26:04.089Z,30.58
2018-02-14T10:28:33.227Z,32.30
2018-02-14T10:31:04.494Z,34.75
2018-02-14T10:33:33.385Z,27.83
2018-02-14T10:36:01.077Z,35.75
2018-02-14T10:38:33.595Z,32.13
2018-02-14T10:41:02.856Z,25.40
2018-02-14T10:43:32.324Z,30.50
2018-02-14T10:46:02.049Z,28.20
2018-02-14T10:48:29.111Z,26.62
2018-02-14T10:53:33.117Z,30.95
2018-02-14T10:56:02.076Z,24.37
2018-02-14T10:58:31.754Z,26.98
2018-02-14T11:01:00.352Z,24.27
2018-02-14T11:03:29.828Z,30.42
2018-02-14T11:05:59.087Z,32.70
2018-02-14T11:08:26.182Z,24.73
2018-02-14T11:10:53.323Z,26.52
2018-02-14T11:13:21.491Z,29.75
2018-02-14T11:15:50.426Z,27.85
2018-02-14T11:18:20.318Z,24.98
2018-02-14T11:20:48.433Z,22.20
2018-02-14T11:23:17.631Z,25.60
2018-02-14T11:25:47.180Z,22.90
2018-02-14T11:28:16.979Z,23.05
2018-02-14T11:30:45.452Z,30.02
2018-02-14T11:33:15.377Z,23.02
2018-02-14T11:35:45.368Z,23.40
2018-02-14T11:38:13.621Z,23.02
2018-02-14T11:40:40.463Z,24.55
2018-02-14T11:43:08.840Z,24.08
2018-02-14T11:45:38.612Z,22.27
2018-02-14T11:48:06.103Z,20.80
2018-02-14T11:50:33.213Z,21.45
2018-02-14T11:53:01.794Z,22.30
2018-02-14T11:55:31.514Z,23.23
2018-02-14T11:58:00.351Z,21.60
2018-02-14T12:00:27.436Z,18.27
2018-02-14T12:02:56.124Z,22.05
2018-02-14T12:05:24.304Z,20.45
2018-02-14T12:07:53.912Z,18.75
2018-02-14T12:10:22.464Z,20.05
2018-02-14T12:12:48.985Z,14.95
2018-02-14T12:15:16.994Z,18.65
2018-02-14T12:17:46.409Z,20.55
2018-02-14T12:20:13.463Z,22.85
2018-02-14T12:22:41.025Z,15.25
2018-02-14T12:25:09.695Z,17.62
2018-02-14T12:27:36.936Z,17.92
2018-02-14T12:30:06.780Z,15.73
2018-02-14T12:32:33.941Z,15.52
2018-02-14T12:35:01.200Z,18.20
2018-02-14T12:37:29.129Z,20.10
2018-02-14T12:39:56.885Z,17.87
2018-02-14T12:42:33.156Z,20.52
2018-02-14T12:45:09.160Z,18.12
2018-02-14T12:47:46.503Z,19.40
2018-02-14T12:50:26.174Z,17.80
2018-02-14T12:53:03.997Z,21.37
2018-02-14T12:55:41.643Z,21.67
2018-02-14T12:58:18.627Z,16.45
2018-02-14T13:00:57.974Z,16.12
2018-02-14T13:03:34.572Z,14.75
2018-02-14T13:06:11.482Z,14.77
2018-02-14T13:08:47.726Z,17.30
2018-02-14T13:11:16.594Z,15.73
2018-02-14T13:13:46.890Z,20.27
2018-02-14T13:16:16.064Z,19.40
2018-02-14T13:18:44.723Z,17.08
2018-02-14T13:21:15.119Z,17.55
2018-02-14T13:23:42.981Z,16.75
2018-02-14T13:26:12.314Z,14.52
2018-02-14T13:28:40.507Z,20.05
2018-02-14T13:31:10.316Z,16.35
2018-02-14T13:33:38.960Z,16.52
2018-02-14T13:36:08.584Z,15.25
2018-02-14T13:38:36.620Z,13.52
2018-02-14T13:41:04.659Z,14.50
2018-02-14T13:43:33.778Z,16.12
2018-02-14T13:46:02.167Z,16.60
2018-02-14T13:48:30.135Z,15.85
2018-02-14T13:50:59.780Z,13.43
2018-02-14T13:53:29.021Z,15.27
2018-02-14T13:55:56.905Z,16.85
2018-02-14T13:58:25.857Z,19.98
2018-02-14T14:00:56.658Z,13.80
2018-02-14T14:03:27.652Z,12.68
2018-02-14T14:05:56.574Z,18.42
2018-02-14T14:08:24.509Z,18.35
2018-02-14T14:10:55.373Z,16.62
2018-02-14T14:13:24.528Z,14.00
2018-02-14T14:15:53.774Z,16.45
2018-02-14T14:18:22.162Z,22.55
2018-02-14T14:20:54.330Z,20.30
2018-02-14T14:23:22.164Z,19.05
2018-02-14T14:25:51.024Z,16.00
2018-02-14T14:28:20.158Z,15.35
2018-02-14T14:30:49.548Z,15.45
2018-02-14T14:33:18.144Z,18.25
2018-02-14T14:35:48.301Z,12.23
2018-02-14T14:38:16.073Z,15.35
2018-02-14T14:40:43.695Z,20.48
2018-02-14T14:43:12.443Z,16.98
2018-02-14T14:45:43.623Z,14.55
2018-02-14T14:48:15.068Z,14.95
2018-02-14T14:50:44.401Z,13.95
2018-02-14T14:53:15.319Z,16.12
2018-02-14T14:55:44.747Z,16.42
2018-02-14T14:58:19.477Z,14.38
2018-02-14T15:00:51.426Z,15.23
2018-02-14T15:03:21.443Z,15.65
2018-02-14T15:05:52.188Z,13.70
2018-02-14T15:08:26.058Z,13.23
2018-02-14T15:10:55.863Z,15.63
2018-02-14T15:13:26.291Z,15.70
2018-02-14T15:15:55.613Z,13.02
2018-02-14T15:18:25.627Z,16.85
2018-02-14T15:20:58.524Z,13.52
2018-02-14T15:23:29.583Z,16.52
2018-02-14T15:26:00.175Z,12.57
2018-02-14T15:28:29.890Z,10.88
2018-02-14T15:31:03.691Z,12.13
2018-02-14T15:33:33.110Z,13.10
2018-02-14T15:36:02.341Z,12.88
2018-02-14T15:38:33.260Z,12.40
2018-02-14T15:41:07.181Z,14.48
2018-02-14T15:43:40.550Z,11.27
2018-02-14T15:46:12.274Z,13.30
2018-02-14T15:48:44.128Z,13.38
2018-02-14T15:53:51.310Z,12.77
2018-02-14T15:56:22.774Z,12.07
2018-02-14T15:58:56.939Z,13.93
2018-02-14T16:01:29.781Z,11.82
2018-02-14T16:04:04.885Z,13.02
2018-02-14T16:06:36.159Z,11.90
2018-02-14T16:09:08.851Z,10.18
2018-02-14T16:11:39.605Z,10.88
2018-02-14T16:14:09.546Z,11.93
2018-02-14T16:16:41.609Z,10.32
2018-02-14T16:19:11.857Z,9.52
2018-02-14T16:21:42.457Z,12.52
2018-02-14T16:24:12.871Z,11.88
2018-02-14T16:26:43.720Z,12.68
2018-02-14T16:29:14.749Z,10.75
2018-02-14T16:31:45.875Z,11.12
2018-02-14T16:34:19.588Z,11.40
2018-02-14T16:36:50.410Z,12.37
2018-02-14T16:39:19.736Z,13.90
2018-02-14T16:44:24.056Z,13.02
2018-02-14T16:46:55.726Z,11.93
2018-02-14T16:49:27.531Z,11.32
2018-02-14T16:51:58.185Z,11.12
2018-02-14T16:54:28.523Z,14.57
2018-02-14T16:57:01.889Z,12.45
2018-02-14T16:59:32.197Z,12.95
2018-02-14T17:02:05.001Z,14.32
2018-02-14T17:04:35.112Z,18.77
2018-02-14T17:07:06.936Z,18.30
2018-02-14T17:09:38.401Z,15.23
2018-02-14T17:12:09.385Z,13.20
2018-02-14T17:14:40.067Z,14.05
2018-02-14T17:17:15.294Z,14.48
2018-02-14T17:19:48.453Z,12.93
2018-02-14T17:22:25.040Z,15.85
2018-02-14T17:24:58.359Z,21.50
2018-02-14T17:30:07.176Z,17.75
2018-02-14T17:37:59.354Z,14.80
2018-02-14T17:40:32.970Z,21.02
2018-02-14T17:45:47.039Z,17.17
2018-02-14T17:48:19.805Z,18.65
2018-02-14T17:53:27.679Z,15.07
2018-02-14T18:50:24.093Z,17.90
2018-02-14T19:00:57.935Z,16.42
2018-02-14T19:06:34.895Z,17.50
2018-02-14T19:21:04.535Z,20.05
2018-02-14T19:23:34.370Z,21.02
2018-02-14T19:36:46.467Z,16.08
2018-02-14T19:39:17.500Z,16.73
2018-02-14T19:52:36.582Z,16.90
2018-02-14T20:04:21.880Z,17.00
2018-02-14T20:20:06.369Z,15.75
2018-02-14T20:22:37.484Z,15.30
2018-02-14T20:25:07.950Z,21.40
2018-02-14T20:27:37.974Z,17.42
2018-02-14T20:30:07.342Z,17.90
2018-02-14T20:32:39.019Z,16.12
2018-02-14T20:35:07.758Z,22.23
2018-02-14T20:37:37.749Z,22.30
2018-02-14T20:40:10.384Z,19.42
2018-02-14T20:47:50.066Z,25.33
2018-02-14T20:50:20.271Z,18.10
2018-02-14T20:52:48.732Z,18.02
2018-02-14T20:55:17.037Z,22.67
2018-02-14T20:57:44.414Z,19.90
2018-02-14T21:00:10.416Z,21.17
2018-02-14T21:02:37.864Z,22.23
2018-02-14T21:05:05.172Z,15.00
2018-02-14T21:07:35.030Z,19.80
2018-02-14T21:10:04.623Z,17.30
2018-02-14T21:12:33.075Z,21.45
2018-02-14T21:15:01.936Z,17.33
2018-02-14T21:17:29.227Z,18.92
2018-02-14T21:19:58.119Z,20.05
2018-02-14T21:22:24.340Z,16.90
2018-02-14T21:24:50.315Z,16.08
2018-02-14T21:27:18.345Z,21.75
2018-02-14T21:29:46.026Z,21.77
2018-02-14T21:32:12.516Z,16.40
2018-02-14T21:34:38.539Z,16.33
2018-02-14T21:37:04.715Z,17.52
2018-02-14T21:39:32.139Z,15.35
2018-02-14T21:41:58.870Z,17.45
2018-02-14T21:44:24.858Z,17.62
2018-02-14T21:46:50.849Z,17.87
2018-02-14T21:49:17.839Z,15.80
2018-02-14T21:51:43.840Z,17.05
2018-02-14T21:54:09.976Z,15.38
2018-02-14T21:56:35.979Z,16.10
2018-02-14T21:59:02.017Z,17.80
2018-02-14T22:01:28.038Z,22.15
2018-02-14T22:03:54.793Z,17.33
2018-02-14T22:06:20.835Z,18.15
2018-02-14T22:08:46.833Z,16.20
2018-02-14T22:11:12.923Z,17.10
2018-02-14T22:13:38.872Z,19.52
2018-02-14T22:16:04.927Z,18.90
2018-02-14T22:18:31.685Z,21.17
2018-02-14T22:20:57.763Z,19.98
2018-02-14T22:23:23.756Z,18.60
2018-02-14T22:25:49.769Z,20.90
2018-02-14T22:28:16.621Z,20.33
2018-02-14T22:30:42.582Z,20.65
2018-02-14T22:33:09.005Z,20.80
2018-02-14T22:35:35.027Z,22.98
2018-02-14T22:38:01.168Z,25.27
2018-02-14T22:40:27.135Z,26.20
2018-02-14T22:42:53.972Z,19.83
2018-02-14T22:45:19.975Z,23.92
2018-02-14T22:47:46.012Z,22.30
2018-02-14T22:50:12.008Z,18.75
2018-02-14T22:52:37.981Z,22.70
2018-02-14T22:55:04.732Z,23.75
2018-02-14T22:57:30.708Z,21.85
2018-02-14T22:59:57.075Z,22.65
2018-02-14T23:02:24.285Z,23.87
2018-02-14T23:04:50.295Z,22.65
2018-02-14T23:07:16.268Z,23.90
2018-02-14T23:09:42.967Z,26.83
2018-02-14T23:12:09.009Z,31.87
2018-02-14T23:14:34.993Z,24.08
2018-02-14T23:17:01.153Z,25.77
2018-02-14T23:19:27.108Z,29.45
2018-02-14T23:21:53.171Z,32.00
2018-02-14T23:24:19.136Z,23.42
2018-02-14T23:26:45.112Z,29.08
2018-02-14T23:29:11.076Z,25.25
2018-02-14T23:31:37.035Z,24.92
2018-02-14T23:34:03.231Z,29.33
2018-02-14T23:36:29.935Z,27.33
2018-02-14T23:38:56.066Z,27.80
2018-02-14T23:41:22.054Z,29.25
2018-02-14T23:43:48.053Z,30.37
2018-02-14T23:46:14.740Z,29.58
2018-02-14T23:48:40.712Z,26.08
2018-02-14T23:51:07.567Z,27.23
2018-02-14T23:53:34.309Z,27.85
2018-02-14T23:56:00.309Z,31.73
2018-02-14T23:58:27.013Z,26.00
